»·PEaware :: N292MC 8W5-KYKM

N292MC :: 8W5-KYKM

FLIGHT INFORMATION

Flight Status: Arrived
Operator: Privately registered:
United States
More flights under this callsign
Pilot: Maurice C. (12314)
Aircraft: Unknown
(KODI)
More flights by this aircraft type
Origin: 8W5 Apex Airpark
United States
Destination: KYKM Yakima Air Term/Mcallister
United States
More flights between these airports :: More routes between these airports
Route: TCM ALDER WHYTE SIMCO
File this flight plan on PilotEdge
Remarks: ALPHABET CHALLENGE
Altitude:
(Current/Filed)
7,500ft
Speed:
(Current/Filed)
180kts
Departed: 12-May-20 08:50 AM
Arrived: 12-May-20 09:47 AM
Distance/Time
Traveled:
111nm/0:57
Distance/Time
To Go:
Arrived

Flight Plot

Page will automatically refresh every two minutes.


Map Options




Map Legend


Flown Route
Filed Route
Departure Airport
Arrival Airport
Navaid (VOR, NDB)
Fix

Horizontal Profiles

Position Reports

Time Latitude Longitude Heading Altitude Ground
Speed
12-May-20 08:28 47.658243 -122.733409 98 527ft 0kts
12-May-20 08:29 47.658243 -122.733409 98 527ft 0kts
12-May-20 08:30 47.658243 -122.733409 98 527ft 0kts
12-May-20 08:35 47.658243 -122.733409 98 527ft 0kts
12-May-20 08:36 47.658243 -122.733409 98 527ft 0kts
12-May-20 08:37 47.658243 -122.733409 98 527ft 0kts
12-May-20 08:38 47.658243 -122.733409 98 527ft 0kts
12-May-20 08:39 47.658243 -122.733409 98 527ft 0kts
12-May-20 08:40 47.658243 -122.733409 98 527ft 0kts
12-May-20 08:41 47.658239 -122.733387 93 527ft 0kts
12-May-20 08:42 47.658239 -122.733387 93 527ft 0kts
12-May-20 08:43 47.658239 -122.733387 93 527ft 0kts
12-May-20 08:44 47.658239 -122.733387 93 527ft 0kts
12-May-20 08:45 47.658239 -122.733387 93 527ft 0kts
12-May-20 08:46 47.658239 -122.733387 93 527ft 0kts
12-May-20 08:47 47.654625 -122.734401 111 505ft 6kts
12-May-20 08:48 47.653613 -122.734005 193 510ft 4kts
12-May-20 08:49 47.656694 -122.733115 5 527ft 63kts
12-May-20 08:50 47.670017 -122.706938 120 1223ft 120kts
12-May-20 08:51 47.632700 -122.693467 186 2021ft 161kts
12-May-20 08:52 47.588507 -122.699656 168 2515ft 173kts
12-May-20 08:53 47.543354 -122.675439 160 2500ft 177kts
12-May-20 08:54 47.496677 -122.651742 160 2636ft 173kts
12-May-20 08:55 47.448603 -122.627293 160 2897ft 171kts
12-May-20 08:56 47.401697 -122.603525 160 3141ft 171kts
12-May-20 08:57 47.359789 -122.580851 160 3368ft 171kts
12-May-20 08:59 47.321028 -122.561107 162 3490ft 173kts
12-May-20 09:00 47.283594 -122.542070 161 3475ft 176kts
12-May-20 09:01 47.245529 -122.523013 161 3473ft 177kts
12-May-20 09:02 47.206595 -122.503568 161 3563ft 173kts
12-May-20 09:03 47.167933 -122.485665 164 3806ft 169kts
12-May-20 09:04 47.128670 -122.471586 174 4056ft 169kts
12-May-20 09:05 47.084376 -122.464094 173 4514ft 164kts
12-May-20 09:06 47.036792 -122.455213 174 4948ft 163kts
12-May-20 09:07 46.991073 -122.446614 174 5370ft 158kts
12-May-20 09:08 46.944238 -122.437826 174 5439ft 170kts
12-May-20 09:09 46.898083 -122.429494 173 5424ft 170kts
12-May-20 09:10 46.859954 -122.422309 174 5511ft 168kts
12-May-20 09:11 46.819109 -122.408738 149 5500ft 176kts
12-May-20 09:12 46.799411 -122.352121 107 5466ft 184kts
12-May-20 09:13 46.784091 -122.295711 120 5500ft 179kts
12-May-20 09:13 46.770479 -122.251949 120 5742ft 173kts
12-May-20 09:15 46.752546 -122.194771 120 6437ft 164kts
12-May-20 09:16 46.737721 -122.147293 121 6987ft 162kts
12-May-20 09:16 46.725355 -122.107525 120 7469ft 162kts
12-May-20 09:17 46.710593 -122.060962 121 7991ft 164kts
12-May-20 09:18 46.695260 -122.012470 122 8516ft 162kts
12-May-20 09:20 46.676930 -121.954374 123 9211ft 162kts
12-May-20 09:20 46.662819 -121.910029 121 9489ft 176kts
12-May-20 09:21 46.644514 -121.852566 121 9482ft 182kts
12-May-20 09:22 46.627151 -121.797723 120 9476ft 182kts
12-May-20 09:23 46.609748 -121.743351 121 9504ft 180kts
12-May-20 09:24 46.592546 -121.688621 119 9487ft 181kts
12-May-20 09:25 46.574517 -121.630266 116 9458ft 186kts
12-May-20 09:26 46.562267 -121.567398 111 9443ft 188kts
12-May-20 09:27 46.547797 -121.497736 112 9456ft 186kts
12-May-20 09:28 46.533024 -121.427405 112 9454ft 187kts
12-May-20 09:29 46.518194 -121.357174 111 9458ft 187kts
12-May-20 09:30 46.504841 -121.294463 112 9231ft 196kts
12-May-20 09:31 46.489520 -121.222585 111 8477ft 201kts
12-May-20 09:32 46.474076 -121.150144 110 7694ft 201kts
12-May-20 09:33 46.458445 -121.077346 109 6888ft 199kts
12-May-20 09:34 46.442908 -121.004595 110 6502ft 192kts
12-May-20 09:35 46.427979 -120.935022 110 6503ft 187kts
12-May-20 09:36 46.414881 -120.864407 91 6499ft 191kts
12-May-20 09:37 46.442405 -120.802786 42 6198ft 203kts
12-May-20 09:38 46.474173 -120.740644 55 5145ft 175kts
12-May-20 09:39 46.497866 -120.691625 54 3997ft 140kts
12-May-20 09:40 46.515908 -120.654051 52 2935ft 111kts
12-May-20 09:41 46.531633 -120.621192 52 2057ft 86kts
12-May-20 09:42 46.542240 -120.593970 73 2108ft 85kts
12-May-20 09:43 46.546037 -120.561933 94 2275ft 93kts
12-May-20 09:44 46.541076 -120.523386 68 2187ft 113kts
12-May-20 09:45 46.562112 -120.518622 290 1322ft 78kts
12-May-20 09:46 46.567387 -120.539023 292 1066ft 33kts
12-May-20 09:47 46.568388 -120.539449 60 1067ft 0kts
12-May-20 09:48 46.569426 -120.538269 0 1065ft 0kts
12-May-20 09:49 46.569426 -120.538269 0 1065ft 0kts
12-May-20 09:50 46.569426 -120.538269 0 1065ft 0kts

Navigation Log

Ident Type
Flight plan parsing failed, navigation log unavailable